createdAt,value
2022-09-28T00:04:50.319Z,9.21
2022-09-28T00:09:51.892Z,9.22
2022-09-28T00:14:54.016Z,9.16
2022-09-28T00:19:58.039Z,9.16
2022-09-28T00:24:59.720Z,9.22
2022-09-28T00:30:01.594Z,9.22
2022-09-28T00:35:04.043Z,9.11
2022-09-28T00:40:06.227Z,9.09
2022-09-28T00:45:09.920Z,9.21
2022-09-28T00:50:20.474Z,9.13
2022-09-28T00:55:32.194Z,9.08
2022-09-28T01:00:33.856Z,9.13
2022-09-28T01:05:36.707Z,8.96
2022-09-28T01:10:39.598Z,9.02
2022-09-28T01:15:56.512Z,8.92
2022-09-28T01:21:02.968Z,9.00
2022-09-28T01:26:14.470Z,9.11
2022-09-28T01:31:18.578Z,9.12
2022-09-28T01:36:29.777Z,9.13
2022-09-28T01:41:36.579Z,9.14
2022-09-28T01:46:45.498Z,9.20
2022-09-28T01:52:04.846Z,9.18
2022-09-28T01:57:17.723Z,9.29
2022-09-28T02:02:29.654Z,9.33
2022-09-28T02:07:46.728Z,9.23
2022-09-28T02:12:53.990Z,9.23
2022-09-28T02:17:56.120Z,9.28
2022-09-28T02:23:01.746Z,9.25
2022-09-28T02:28:10.162Z,9.14
2022-09-28T02:33:36.781Z,9.11
2022-09-28T02:38:39.445Z,9.09
2022-09-28T02:43:49.419Z,9.15
2022-09-28T02:49:22.110Z,9.21
2022-09-28T02:54:59.553Z,9.14
2022-09-28T03:06:00.426Z,9.37
2022-09-28T03:11:21.007Z,9.35
2022-09-28T03:16:27.545Z,9.31
2022-09-28T03:21:29.358Z,9.24
2022-09-28T03:26:31.138Z,9.31
2022-09-28T03:31:32.953Z,9.35
2022-09-28T03:36:34.642Z,9.27
2022-09-28T03:41:36.868Z,9.16
2022-09-28T03:46:38.744Z,9.02
2022-09-28T03:51:43.309Z,9.14
2022-09-28T03:56:44.989Z,9.21
2022-09-28T04:01:49.789Z,9.33
2022-09-28T04:06:51.544Z,9.26
2022-09-28T04:12:03.227Z,9.32
2022-09-28T04:17:08.381Z,9.27
2022-09-28T04:22:10.340Z,9.28
2022-09-28T04:27:31.594Z,9.13
2022-09-28T04:32:35.371Z,9.16
2022-09-28T04:37:47.030Z,9.13
2022-09-28T04:42:55.821Z,9.13
2022-09-28T04:47:57.722Z,9.10
2022-09-28T04:53:26.930Z,9.01
2022-09-28T04:58:29.852Z,8.71
2022-09-28T05:03:31.800Z,8.84
2022-09-28T05:08:47.270Z,8.84
2022-09-28T05:13:50.490Z,8.76
2022-09-28T05:18:57.032Z,8.93
2022-09-28T05:23:58.802Z,9.09
2022-09-28T05:29:01.111Z,9.16
2022-09-28T05:34:21.275Z,9.18
2022-09-28T05:39:23.097Z,9.06
2022-09-28T05:44:25.922Z,9.05
2022-09-28T05:49:31.706Z,9.11
2022-09-28T05:54:35.372Z,9.21
2022-09-28T05:59:37.078Z,9.12
2022-09-28T06:04:38.701Z,9.09
2022-09-28T06:09:40.485Z,9.16
2022-09-28T06:14:49.989Z,9.15
2022-09-28T06:19:52.342Z,9.07
2022-09-28T06:25:12.702Z,9.19
2022-09-28T06:30:14.521Z,9.22
2022-09-28T06:35:16.250Z,9.23
2022-09-28T06:40:19.187Z,9.18
2022-09-28T06:45:24.518Z,9.11
2022-09-28T06:50:58.245Z,9.09
2022-09-28T06:56:10.295Z,8.86
2022-09-28T07:01:12.199Z,9.03
2022-09-28T07:06:26.747Z,9.27
2022-09-28T07:11:45.819Z,9.43
2022-09-28T07:17:13.235Z,9.31
2022-09-28T07:22:19.452Z,9.61
2022-09-28T07:27:28.131Z,9.68
2022-09-28T07:32:48.489Z,9.89
2022-09-28T07:38:07.559Z,10.10
2022-09-28T07:43:09.271Z,10.43
2022-09-28T07:53:39.236Z,11.00
2022-09-28T07:59:03.639Z,11.35
2022-09-28T08:04:14.125Z,11.55
2022-09-28T08:09:18.163Z,11.91
2022-09-28T08:14:38.840Z,12.44
2022-09-28T08:20:10.613Z,12.77
2022-09-28T08:25:12.466Z,13.18
2022-09-28T08:30:14.432Z,14.46
2022-09-28T08:35:28.592Z,13.79
2022-09-28T08:41:06.350Z,12.75
2022-09-28T08:46:39.442Z,12.25
2022-09-28T08:52:20.652Z,12.04
2022-09-28T08:57:55.791Z,12.66
2022-09-28T09:02:57.673Z,13.55
2022-09-28T09:08:33.232Z,14.34
2022-09-28T09:14:05.659Z,14.37
2022-09-28T09:19:37.841Z,14.50
2022-09-28T09:25:21.320Z,13.99
2022-09-28T09:30:30.472Z,13.38
2022-09-28T09:35:51.542Z,13.01
2022-09-28T09:41:46.665Z,13.70
2022-09-28T09:47:33.457Z,14.34
2022-09-28T09:52:57.281Z,14.89
2022-09-28T09:58:29.717Z,15.17
2022-09-28T10:04:19.976Z,15.58
2022-09-28T10:09:34.979Z,15.88
2022-09-28T10:14:55.393Z,16.14
2022-09-28T10:20:00.010Z,15.97
2022-09-28T10:25:33.917Z,16.58
2022-09-28T10:30:44.555Z,15.86
2022-09-28T10:35:47.857Z,15.22
2022-09-28T10:40:51.977Z,15.27
2022-09-28T10:46:07.144Z,15.88
2022-09-28T10:51:09.763Z,16.24
2022-09-28T10:56:21.965Z,16.43
2022-09-28T11:01:33.782Z,16.53
2022-09-28T11:06:39.042Z,16.63
2022-09-28T11:11:43.017Z,16.55
2022-09-28T11:16:45.749Z,17.01
2022-09-28T11:21:48.251Z,17.27
2022-09-28T11:27:02.018Z,17.42
2022-09-28T11:32:06.454Z,17.58
2022-09-28T11:37:54.763Z,17.61
2022-09-28T11:43:44.459Z,17.69
2022-09-28T11:48:54.396Z,17.61
2022-09-28T11:54:05.162Z,17.79
2022-09-28T11:59:14.638Z,17.76
2022-09-28T12:04:33.650Z,17.51
2022-09-28T12:09:43.565Z,17.46
2022-09-28T12:15:00.491Z,17.50
2022-09-28T12:20:20.853Z,17.11
2022-09-28T12:25:23.650Z,16.88
2022-09-28T12:30:26.515Z,17.04
2022-09-28T12:35:44.881Z,17.11
2022-09-28T12:40:52.692Z,16.89
2022-09-28T12:46:23.762Z,16.84
2022-09-28T12:51:55.111Z,17.02
2022-09-28T12:57:20.551Z,17.18
2022-09-28T13:02:37.325Z,16.94
2022-09-28T13:08:04.162Z,16.16
2022-09-28T13:13:20.491Z,15.29
2022-09-28T13:18:40.751Z,14.84
2022-09-28T13:23:45.448Z,14.69
2022-09-28T13:28:51.513Z,14.55
2022-09-28T13:33:54.067Z,14.37
2022-09-28T13:38:57.347Z,14.30
2022-09-28T13:44:21.320Z,14.30
2022-09-28T13:49:27.819Z,14.38
2022-09-28T13:55:25.468Z,14.73
2022-09-28T14:00:49.701Z,14.83
2022-09-28T14:06:04.079Z,14.77
2022-09-28T14:11:36.865Z,14.78
2022-09-28T14:16:40.497Z,14.98
2022-09-28T14:22:16.229Z,15.11
2022-09-28T14:27:26.844Z,15.17
2022-09-28T14:32:36.568Z,14.77
2022-09-28T14:37:58.441Z,14.53
2022-09-28T14:43:25.100Z,14.76
2022-09-28T14:48:50.996Z,14.86
2022-09-28T14:54:04.838Z,14.93
2022-09-28T14:59:19.514Z,14.76
2022-09-28T15:04:23.865Z,14.82
2022-09-28T15:09:38.477Z,14.53
2022-09-28T15:15:02.311Z,14.31
2022-09-28T15:20:23.790Z,14.17
2022-09-28T15:25:33.042Z,14.02
2022-09-28T15:30:36.539Z,13.96
2022-09-28T15:35:38.787Z,13.92
2022-09-28T15:40:41.028Z,13.84
2022-09-28T15:45:44.633Z,13.70
2022-09-28T15:51:11.452Z,13.51
2022-09-28T15:56:13.357Z,13.46
2022-09-28T16:01:36.843Z,12.93
2022-09-28T16:06:40.975Z,13.00
2022-09-28T16:11:42.763Z,13.07
2022-09-28T16:16:48.812Z,13.19
2022-09-28T16:21:56.131Z,13.04
2022-09-28T16:27:04.556Z,12.89
2022-09-28T16:32:45.784Z,12.76
2022-09-28T16:37:56.663Z,12.54
2022-09-28T16:43:02.851Z,12.51
2022-09-28T16:48:04.667Z,12.51
2022-09-28T16:53:32.044Z,12.16
2022-09-28T16:58:34.076Z,12.14
2022-09-28T17:03:35.867Z,11.76
2022-09-28T17:08:37.538Z,11.64
2022-09-28T17:13:39.917Z,11.59
2022-09-28T17:18:41.880Z,11.72
2022-09-28T17:23:44.488Z,11.48
2022-09-28T17:28:46.180Z,11.55
2022-09-28T17:33:47.752Z,11.44
2022-09-28T17:38:50.388Z,11.31
2022-09-28T17:43:56.151Z,11.32
2022-09-28T17:49:02.191Z,11.06
2022-09-28T17:54:06.570Z,11.32
2022-09-28T17:59:13.295Z,11.30
2022-09-28T18:04:33.722Z,11.01
2022-09-28T18:09:38.893Z,11.03
2022-09-28T18:14:40.564Z,10.86
2022-09-28T18:19:42.233Z,10.88
2022-09-28T18:24:43.941Z,10.85
2022-09-28T18:29:45.574Z,10.77
2022-09-28T18:34:47.455Z,10.86
2022-09-28T18:39:49.099Z,10.86
2022-09-28T18:44:50.832Z,10.94
2022-09-28T18:49:52.613Z,10.90
2022-09-28T18:54:54.796Z,10.86
2022-09-28T18:59:56.671Z,10.93
2022-09-28T19:05:02.743Z,10.85
2022-09-28T19:10:05.104Z,11.00
2022-09-28T19:15:07.366Z,10.97
2022-09-28T19:20:10.492Z,11.05
2022-09-28T19:25:13.375Z,10.97
2022-09-28T19:30:15.208Z,11.01
2022-09-28T19:35:16.863Z,10.97
2022-09-28T19:40:18.509Z,10.72
2022-09-28T19:45:20.314Z,10.47
2022-09-28T19:50:42.781Z,10.60
2022-09-28T19:55:51.051Z,10.56
2022-09-28T20:00:52.745Z,10.53
2022-09-28T20:05:58.821Z,10.58
2022-09-28T20:11:00.628Z,10.58
2022-09-28T20:16:06.914Z,10.63
2022-09-28T20:21:17.978Z,10.56
2022-09-28T20:26:23.036Z,10.49
2022-09-28T20:31:25.382Z,10.45
2022-09-28T20:36:29.796Z,10.42
2022-09-28T20:41:36.807Z,10.38
2022-09-28T20:46:45.672Z,10.33
2022-09-28T20:51:50.690Z,10.26
2022-09-28T20:56:52.338Z,10.13
2022-09-28T21:01:53.966Z,10.19
2022-09-28T21:06:55.726Z,10.14
2022-09-28T21:11:57.647Z,10.17
2022-09-28T21:16:59.257Z,10.19
2022-09-28T21:22:01.101Z,10.17
2022-09-28T21:27:02.814Z,10.22
2022-09-28T21:32:04.481Z,10.21
2022-09-28T21:37:06.090Z,10.16
2022-09-28T21:42:08.782Z,10.25
2022-09-28T21:47:11.025Z,10.05
2022-09-28T21:52:12.856Z,10.16
2022-09-28T21:57:14.478Z,10.07
2022-09-28T22:02:16.060Z,9.92
2022-09-28T22:07:17.659Z,9.78
2022-09-28T22:12:19.827Z,9.86
2022-09-28T22:17:21.800Z,9.71
2022-09-28T22:22:26.178Z,9.90
2022-09-28T22:27:31.733Z,9.91
2022-09-28T22:32:33.454Z,9.94
2022-09-28T22:37:36.451Z,9.77
2022-09-28T22:42:39.009Z,9.70
2022-09-28T22:47:40.606Z,9.74
2022-09-28T22:52:42.167Z,9.61
2022-09-28T22:57:43.754Z,9.60
2022-09-28T23:02:45.516Z,9.57
2022-09-28T23:07:47.679Z,9.63
2022-09-28T23:12:49.356Z,9.65
2022-09-28T23:17:52.777Z,9.39
2022-09-28T23:22:54.375Z,9.42
2022-09-28T23:27:56.026Z,9.46
2022-09-28T23:32:57.680Z,9.51
2022-09-28T23:37:59.356Z,9.55
2022-09-28T23:43:00.973Z,9.34
2022-09-28T23:48:03.768Z,9.23
2022-09-28T23:53:05.706Z,9.11
2022-09-28T23:58:07.735Z,9.16
